sensor_id;sensor_type;location;lat;lon;timestamp;pressure;altitude;pressure_sealevel;temperature;humidity
23241;BME280;11789;53.482;9.862;2024-01-30T00:00:35;102828.59;;;2.94;100.00
23241;BME280;11789;53.482;9.862;2024-01-30T00:03:01;102825.75;;;2.90;100.00
23241;BME280;11789;53.482;9.862;2024-01-30T00:05:26;102823.97;;;2.89;100.00
23241;BME280;11789;53.482;9.862;2024-01-30T00:07:52;102827.31;;;2.87;100.00
23241;BME280;11789;53.482;9.862;2024-01-30T00:10:17;102825.75;;;2.90;100.00
23241;BME280;11789;53.482;9.862;2024-01-30T00:12:42;102829.56;;;2.83;100.00
23241;BME280;11789;53.482;9.862;2024-01-30T00:15:08;102820.94;;;2.81;100.00
23241;BME280;11789;53.482;9.862;2024-01-30T00:17:36;102825.69;;;2.75;100.00
23241;BME280;11789;53.482;9.862;2024-01-30T00:20:02;102822.34;;;2.76;100.00
23241;BME280;11789;53.482;9.862;2024-01-30T00:22:31;102821.53;;;2.77;100.00
23241;BME280;11789;53.482;9.862;2024-01-30T00:24:56;102819.41;;;2.70;100.00
23241;BME280;11789;53.482;9.862;2024-01-30T00:27:22;102816.13;;;2.72;100.00
23241;BME280;11789;53.482;9.862;2024-01-30T00:29:47;102816.28;;;2.60;100.00
23241;BME280;11789;53.482;9.862;2024-01-30T00:32:13;102820.66;;;2.63;100.00
23241;BME280;11789;53.482;9.862;2024-01-30T00:34:38;102806.25;;;2.64;100.00
23241;BME280;11789;53.482;9.862;2024-01-30T00:37:04;102806.06;;;2.60;100.00
23241;BME280;11789;53.482;9.862;2024-01-30T00:39:29;102801.25;;;2.52;100.00
23241;BME280;11789;53.482;9.862;2024-01-30T00:41:55;102798.59;;;2.50;100.00
23241;BME280;11789;53.482;9.862;2024-01-30T00:44:20;102804.00;;;2.55;100.00
23241;BME280;11789;53.482;9.862;2024-01-30T00:46:45;102800.44;;;2.53;100.00
23241;BME280;11789;53.482;9.862;2024-01-30T00:49:11;102804.78;;;2.54;100.00
23241;BME280;11789;53.482;9.862;2024-01-30T00:51:37;102808.31;;;2.56;100.00
23241;BME280;11789;53.482;9.862;2024-01-30T00:54:02;102805.75;;;2.56;100.00
23241;BME280;11789;53.482;9.862;2024-01-30T00:56:28;102799.06;;;2.58;100.00
23241;BME280;11789;53.482;9.862;2024-01-30T00:58:54;102805.56;;;2.66;100.00
23241;BME280;11789;53.482;9.862;2024-01-30T01:01:19;102794.53;;;2.67;100.00
23241;BME280;11789;53.482;9.862;2024-01-30T01:03:45;102792.59;;;2.63;100.00
23241;BME280;11789;53.482;9.862;2024-01-30T01:06:10;102797.50;;;2.60;100.00
23241;BME280;11789;53.482;9.862;2024-01-30T01:08:36;102797.50;;;2.60;100.00
23241;BME280;11789;53.482;9.862;2024-01-30T01:11:02;102797.31;;;2.57;100.00
23241;BME280;11789;53.482;9.862;2024-01-30T01:13:28;102804.28;;;2.59;100.00
23241;BME280;11789;53.482;9.862;2024-01-30T01:15:54;102806.94;;;2.61;100.00
23241;BME280;11789;53.482;9.862;2024-01-30T01:18:20;102805.19;;;2.60;100.00
23241;BME280;11789;53.482;9.862;2024-01-30T01:20:45;102805.97;;;2.59;100.00
23241;BME280;11789;53.482;9.862;2024-01-30T01:23:11;102810.88;;;2.56;100.00
23241;BME280;11789;53.482;9.862;2024-01-30T01:25:36;102808.09;;;2.53;100.00
23241;BME280;11789;53.482;9.862;2024-01-30T01:28:02;102805.69;;;2.54;100.00
23241;BME280;11789;53.482;9.862;2024-01-30T01:30:28;102802.31;;;2.55;100.00
23241;BME280;11789;53.482;9.862;2024-01-30T01:32:54;102804.19;;;2.58;100.00
23241;BME280;11789;53.482;9.862;2024-01-30T01:35:23;102802.13;;;2.52;100.00
23241;BME280;11789;53.482;9.862;2024-01-30T01:37:53;102811.75;;;2.43;100.00
23241;BME280;11789;53.482;9.862;2024-01-30T01:40:27;102798.91;;;2.42;100.00
23241;BME280;11789;53.482;9.862;2024-01-30T01:42:54;102804.00;;;2.42;100.00
23241;BME280;11789;53.482;9.862;2024-01-30T01:45:20;102801.38;;;2.40;100.00
23241;BME280;11789;53.482;9.862;2024-01-30T01:47:52;102801.06;;;2.36;100.00
23241;BME280;11789;53.482;9.862;2024-01-30T01:50:21;102799.19;;;2.33;100.00
23241;BME280;11789;53.482;9.862;2024-01-30T01:52:50;102805.28;;;2.35;100.00
23241;BME280;11789;53.482;9.862;2024-01-30T01:55:17;102795.47;;;2.41;100.00
23241;BME280;11789;53.482;9.862;2024-01-30T01:57:46;102794.66;;;2.42;100.00
23241;BME280;11789;53.482;9.862;2024-01-30T02:00:12;102789.56;;;2.42;100.00
23241;BME280;11789;53.482;9.862;2024-01-30T02:02:38;102781.81;;;2.41;100.00
23241;BME280;11789;53.482;9.862;2024-01-30T02:05:04;102776.72;;;2.41;100.00
23241;BME280;11789;53.482;9.862;2024-01-30T02:07:30;102776.13;;;2.45;100.00
23241;BME280;11789;53.482;9.862;2024-01-30T02:09:56;102770.44;;;2.49;100.00
23241;BME280;11789;53.482;9.862;2024-01-30T02:12:21;102773.16;;;2.52;100.00
23241;BME280;11789;53.482;9.862;2024-01-30T02:14:48;102768.34;;;2.56;100.00
23241;BME280;11789;53.482;9.862;2024-01-30T02:17:14;102772.16;;;2.63;100.00
23241;BME280;11789;53.482;9.862;2024-01-30T02:19:39;102762.94;;;2.65;100.00
23241;BME280;11789;53.482;9.862;2024-01-30T02:22:05;102765.28;;;2.62;100.00
23241;BME280;11789;53.482;9.862;2024-01-30T02:24:31;102759.50;;;2.65;100.00
23241;BME280;11789;53.482;9.862;2024-01-30T02:26:56;102749.09;;;2.62;100.00
23241;BME280;11789;53.482;9.862;2024-01-30T02:29:22;102746.81;;;2.66;100.00
23241;BME280;11789;53.482;9.862;2024-01-30T02:31:47;102744.47;;;2.69;100.00
23241;BME280;11789;53.482;9.862;2024-01-30T02:34:14;102748.87;;;2.72;100.00
23241;BME280;11789;53.482;9.862;2024-01-30T02:36:42;102738.06;;;2.63;100.00
23241;BME280;11789;53.482;9.862;2024-01-30T02:39:08;102741.63;;;2.65;100.00
23241;BME280;11789;53.482;9.862;2024-01-30T02:41:33;102739.06;;;2.65;100.00
23241;BME280;11789;53.482;9.862;2024-01-30T02:43:59;102732.28;;;2.65;100.00
23241;BME280;11789;53.482;9.862;2024-01-30T02:46:24;102725.78;;;2.70;100.00
23241;BME280;11789;53.482;9.862;2024-01-30T02:48:50;102728.63;;;2.75;100.00
23241;BME280;11789;53.482;9.862;2024-01-30T02:51:15;102726.16;;;2.76;100.00
23241;BME280;11789;53.482;9.862;2024-01-30T02:53:41;102725.97;;;2.73;100.00
23241;BME280;11789;53.482;9.862;2024-01-30T02:56:06;102726.06;;;2.75;100.00
23241;BME280;11789;53.482;9.862;2024-01-30T02:58:35;102727.25;;;2.80;100.00
23241;BME280;11789;53.482;9.862;2024-01-30T03:01:01;102735.00;;;2.81;100.00
23241;BME280;11789;53.482;9.862;2024-01-30T03:03:26;102740.19;;;2.83;100.00
23241;BME280;11789;53.482;9.862;2024-01-30T03:05:52;102733.75;;;2.75;100.00
23241;BME280;11789;53.482;9.862;2024-01-30T03:08:17;102737.78;;;2.58;100.00
23241;BME280;11789;53.482;9.862;2024-01-30T03:10:42;102735.06;;;2.55;100.00
23241;BME280;11789;53.482;9.862;2024-01-30T03:13:08;102730.84;;;2.42;100.00
23241;BME280;11789;53.482;9.862;2024-01-30T03:15:33;102733.91;;;2.37;100.00
23241;BME280;11789;53.482;9.862;2024-01-30T03:17:59;102730.69;;;2.39;100.00
23241;BME280;11789;53.482;9.862;2024-01-30T03:20:24;102726.47;;;2.40;100.00
23241;BME280;11789;53.482;9.862;2024-01-30T03:22:49;102733.81;;;2.35;100.00
23241;BME280;11789;53.482;9.862;2024-01-30T03:25:15;102732.28;;;2.24;100.00
23241;BME280;11789;53.482;9.862;2024-01-30T03:27:40;102720.97;;;2.20;100.00
23241;BME280;11789;53.482;9.862;2024-01-30T03:30:06;102719.81;;;2.15;100.00
23241;BME280;11789;53.482;9.862;2024-01-30T03:32:32;102724.13;;;2.16;100.00
23241;BME280;11789;53.482;9.862;2024-01-30T03:34:57;102721.28;;;2.12;100.00
23241;BME280;11789;53.482;9.862;2024-01-30T03:37:23;102708.72;;;2.01;100.00
23241;BME280;11789;53.482;9.862;2024-01-30T03:39:49;102715.72;;;2.04;100.00
23241;BME280;11789;53.482;9.862;2024-01-30T03:42:14;102706.28;;;2.03;100.00
23241;BME280;11789;53.482;9.862;2024-01-30T03:44:40;102705.81;;;2.08;100.00
23241;BME280;11789;53.482;9.862;2024-01-30T03:47:05;102702.62;;;2.13;100.00
23241;BME280;11789;53.482;9.862;2024-01-30T03:49:30;102701.94;;;2.15;100.00
23241;BME280;11789;53.482;9.862;2024-01-30T03:51:56;102704.78;;;2.20;100.00
23241;BME280;11789;53.482;9.862;2024-01-30T03:54:21;102700.19;;;2.14;100.00
23241;BME280;11789;53.482;9.862;2024-01-30T03:56:47;102699.41;;;2.15;100.00
23241;BME280;11789;53.482;9.862;2024-01-30T03:59:12;102693.72;;;2.19;100.00
23241;BME280;11789;53.482;9.862;2024-01-30T04:01:37;102691.16;;;2.19;100.00
23241;BME280;11789;53.482;9.862;2024-01-30T04:04:03;102683.50;;;2.19;100.00
23241;BME280;11789;53.482;9.862;2024-01-30T04:06:28;102694.09;;;2.25;100.00
23241;BME280;11789;53.482;9.862;2024-01-30T04:08:54;102689.88;;;2.26;100.00
23241;BME280;11789;53.482;9.862;2024-01-30T04:11:19;102690.75;;;2.26;100.00
23241;BME280;11789;53.482;9.862;2024-01-30T04:13:45;102698.59;;;2.29;100.00
23241;BME280;11789;53.482;9.862;2024-01-30T04:16:19;102692.50;;;2.27;100.00
23241;BME280;11789;53.482;9.862;2024-01-30T04:18:45;102686.44;;;2.25;100.00
23241;BME280;11789;53.482;9.862;2024-01-30T04:21:11;102688.28;;;2.28;100.00
23241;BME280;11789;53.482;9.862;2024-01-30T04:23:36;102687.41;;;2.27;100.00
23241;BME280;11789;53.482;9.862;2024-01-30T04:26:02;102696.56;;;2.24;100.00
23241;BME280;11789;53.482;9.862;2024-01-30T04:28:28;102698.59;;;2.16;100.00
23241;BME280;11789;53.482;9.862;2024-01-30T04:30:54;102702.44;;;2.10;100.00
23241;BME280;11789;53.482;9.862;2024-01-30T04:33:19;102697.25;;;1.95;100.00
23241;BME280;11789;53.482;9.862;2024-01-30T04:35:45;102700.97;;;1.87;100.00
23241;BME280;11789;53.482;9.862;2024-01-30T04:38:10;102700.87;;;1.85;100.00
23241;BME280;11789;53.482;9.862;2024-01-30T04:40:35;102693.94;;;1.83;100.00
23241;BME280;11789;53.482;9.862;2024-01-30T04:43:01;102701.09;;;1.88;100.00
23241;BME280;11789;53.482;9.862;2024-01-30T04:45:26;102705.78;;;1.95;100.00
23241;BME280;11789;53.482;9.862;2024-01-30T04:47:52;102704.03;;;1.94;100.00
23241;BME280;11789;53.482;9.862;2024-01-30T04:50:17;102700.69;;;1.95;100.00
23241;BME280;11789;53.482;9.862;2024-01-30T04:52:43;102702.16;;;1.92;100.00
23241;BME280;11789;53.482;9.862;2024-01-30T04:55:09;102703.03;;;1.92;100.00
23241;BME280;11789;53.482;9.862;2024-01-30T04:57:34;102708.94;;;1.91;100.00
23241;BME280;11789;53.482;9.862;2024-01-30T05:00:00;102708.44;;;1.84;100.00
23241;BME280;11789;53.482;9.862;2024-01-30T05:02:25;102710.69;;;1.79;100.00
23241;BME280;11789;53.482;9.862;2024-01-30T05:04:51;102701.28;;;1.78;100.00
23241;BME280;11789;53.482;9.862;2024-01-30T05:07:16;102697.75;;;1.76;100.00
23241;BME280;11789;53.482;9.862;2024-01-30T05:09:42;102698.84;;;1.79;100.00
23241;BME280;11789;53.482;9.862;2024-01-30T05:12:08;102699.81;;;1.81;100.00
23241;BME280;11789;53.482;9.862;2024-01-30T05:14:33;102692.66;;;1.76;100.00
23241;BME280;11789;53.482;9.862;2024-01-30T05:16:58;102698.16;;;1.69;100.00
23241;BME280;11789;53.482;9.862;2024-01-30T05:19:24;102695.78;;;1.72;100.00
23241;BME280;11789;53.482;9.862;2024-01-30T05:21:50;102697.56;;;1.73;100.00
23241;BME280;11789;53.482;9.862;2024-01-30T05:24:15;102701.47;;;1.68;100.00
23241;BME280;11789;53.482;9.862;2024-01-30T05:26:41;102699.03;;;1.69;100.00
23241;BME280;11789;53.482;9.862;2024-01-30T05:29:07;102697.25;;;1.68;100.00
23241;BME280;11789;53.482;9.862;2024-01-30T05:31:33;102692.75;;;1.64;100.00
23241;BME280;11789;53.482;9.862;2024-01-30T05:33:59;102688.63;;;1.66;100.00
23241;BME280;11789;53.482;9.862;2024-01-30T05:36:25;102686.84;;;1.65;100.00
23241;BME280;11789;53.482;9.862;2024-01-30T05:38:50;102691.97;;;1.65;100.00
23241;BME280;11789;53.482;9.862;2024-01-30T05:41:16;102695.28;;;1.64;100.00
23241;BME280;11789;53.482;9.862;2024-01-30T05:43:41;102695.97;;;1.62;100.00
23241;BME280;11789;53.482;9.862;2024-01-30T05:46:07;102685.47;;;1.57;100.00
23241;BME280;11789;53.482;9.862;2024-01-30T05:48:32;102680.38;;;1.57;100.00
23241;BME280;11789;53.482;9.862;2024-01-30T05:50:58;102677.63;;;1.54;100.00
23241;BME280;11789;53.482;9.862;2024-01-30T05:53:25;102677.63;;;1.54;100.00
23241;BME280;11789;53.482;9.862;2024-01-30T05:55:50;102678.53;;;1.54;100.00
23241;BME280;11789;53.482;9.862;2024-01-30T05:58:16;102676.28;;;1.59;100.00
23241;BME280;11789;53.482;9.862;2024-01-30T06:00:41;102670.59;;;1.63;100.00
23241;BME280;11789;53.482;9.862;2024-01-30T06:03:07;102662.94;;;1.63;100.00
23241;BME280;11789;53.482;9.862;2024-01-30T06:05:32;102669.53;;;1.73;100.00
23241;BME280;11789;53.482;9.862;2024-01-30T06:07:58;102672.75;;;1.84;100.00
23241;BME280;11789;53.482;9.862;2024-01-30T06:10:23;102670.09;;;1.82;100.00
23241;BME280;11789;53.482;9.862;2024-01-30T06:12:49;102676.28;;;1.86;100.00
23241;BME280;11789;53.482;9.862;2024-01-30T06:15:14;102668.91;;;1.90;100.00
23241;BME280;11789;53.482;9.862;2024-01-30T06:17:40;102665.69;;;1.93;100.00
23241;BME280;11789;53.482;9.862;2024-01-30T06:20:06;102671.03;;;1.97;100.00
23241;BME280;11789;53.482;9.862;2024-01-30T06:22:31;102663.59;;;2.00;100.00
23241;BME280;11789;53.482;9.862;2024-01-30T06:24:57;102659.38;;;2.01;100.00
23241;BME280;11789;53.482;9.862;2024-01-30T06:27:22;102653.50;;;2.02;100.00
23241;BME280;11789;53.482;9.862;2024-01-30T06:29:48;102653.31;;;1.99;100.00
23241;BME280;11789;53.482;9.862;2024-01-30T06:32:13;102644.66;;;1.97;100.00
23241;BME280;11789;53.482;9.862;2024-01-30T06:34:40;102647.13;;;1.95;100.00
23241;BME280;11789;53.482;9.862;2024-01-30T06:37:06;102638.19;;;2.02;100.00
23241;BME280;11789;53.482;9.862;2024-01-30T06:39:31;102639.34;;;2.07;100.00
23241;BME280;11789;53.482;9.862;2024-01-30T06:41:57;102636.78;;;2.07;100.00
23241;BME280;11789;53.482;9.862;2024-01-30T06:44:22;102635.31;;;2.11;100.00
23241;BME280;11789;53.482;9.862;2024-01-30T06:46:48;102635.41;;;2.12;100.00
23241;BME280;11789;53.482;9.862;2024-01-30T06:49:13;102644.84;;;2.13;100.00
23241;BME280;11789;53.482;9.862;2024-01-30T06:51:39;102640.53;;;2.12;100.00
23241;BME280;11789;53.482;9.862;2024-01-30T06:54:04;102634.03;;;2.17;100.00
23241;BME280;11789;53.482;9.862;2024-01-30T06:56:30;102647.59;;;2.16;100.00
23241;BME280;11789;53.482;9.862;2024-01-30T06:58:55;102637.78;;;2.09;100.00
23241;BME280;11789;53.482;9.862;2024-01-30T07:01:27;102639.47;;;2.08;100.00
23241;BME280;11789;53.482;9.862;2024-01-30T07:03:53;102641.13;;;2.08;100.00
23241;BME280;11789;53.482;9.862;2024-01-30T07:06:18;102634.94;;;2.04;100.00
23241;BME280;11789;53.482;9.862;2024-01-30T07:08:45;102634.06;;;2.04;100.00
23241;BME280;11789;53.482;9.862;2024-01-30T07:11:10;102634.94;;;2.04;100.00
23241;BME280;11789;53.482;9.862;2024-01-30T07:13:37;102634.25;;;2.07;100.00
23241;BME280;11789;53.482;9.862;2024-01-30T07:16:03;102632.41;;;2.04;100.00
23241;BME280;11789;53.482;9.862;2024-01-30T07:18:28;102624.66;;;2.03;100.00
23241;BME280;11789;53.482;9.862;2024-01-30T07:20:54;102630.66;;;2.03;100.00
23241;BME280;11789;53.482;9.862;2024-01-30T07:23:19;102627.31;;;2.04;100.00
23241;BME280;11789;53.482;9.862;2024-01-30T07:25:45;102635.91;;;2.06;100.00
23241;BME280;11789;53.482;9.862;2024-01-30T07:28:10;102633.28;;;2.05;100.00
23241;BME280;11789;53.482;9.862;2024-01-30T07:30:37;102634.16;;;2.05;100.00
23241;BME280;11789;53.482;9.862;2024-01-30T07:33:03;102634.16;;;2.05;100.00
23241;BME280;11789;53.482;9.862;2024-01-30T07:35:28;102625.84;;;2.08;100.00
23241;BME280;11789;53.482;9.862;2024-01-30T07:37:54;102631.41;;;2.02;100.00
23241;BME280;11789;53.482;9.862;2024-01-30T07:40:19;102628.38;;;2.08;100.00
23241;BME280;11789;53.482;9.862;2024-01-30T07:42:45;102640.63;;;2.14;100.00
23241;BME280;11789;53.482;9.862;2024-01-30T07:45:10;102639.13;;;2.17;100.00
23241;BME280;11789;53.482;9.862;2024-01-30T07:47:36;102631.97;;;2.25;100.00
23241;BME280;11789;53.482;9.862;2024-01-30T07:50:02;102635.47;;;2.27;100.00
23241;BME280;11789;53.482;9.862;2024-01-30T07:52:27;102630.06;;;2.36;100.00
23241;BME280;11789;53.482;9.862;2024-01-30T07:54:52;102622.19;;;2.46;100.00
23241;BME280;11789;53.482;9.862;2024-01-30T08:03:52;102623.09;;;2.61;100.00
23241;BME280;11789;53.482;9.862;2024-01-30T08:06:18;102619.59;;;2.59;100.00
23241;BME280;11789;53.482;9.862;2024-01-30T08:08:43;102624.06;;;2.63;100.00
23241;BME280;11789;53.482;9.862;2024-01-30T08:11:09;102620.03;;;2.67;100.00
23241;BME280;11789;53.482;9.862;2024-01-30T08:13:34;102622.84;;;2.71;100.00
23241;BME280;11789;53.482;9.862;2024-01-30T08:16:00;102629.13;;;2.76;100.00
23241;BME280;11789;53.482;9.862;2024-01-30T08:18:25;102627.72;;;2.81;100.00
23241;BME280;11789;53.482;9.862;2024-01-30T08:20:51;102629.81;;;2.89;100.00
23241;BME280;11789;53.482;9.862;2024-01-30T08:23:17;102633.72;;;2.97;100.00
23241;BME280;11789;53.482;9.862;2024-01-30T08:25:42;102635.81;;;3.04;100.00
23241;BME280;11789;53.482;9.862;2024-01-30T08:28:07;102623.84;;;3.03;100.00
23241;BME280;11789;53.482;9.862;2024-01-30T08:30:33;102626.50;;;3.04;100.00
23241;BME280;11789;53.482;9.862;2024-01-30T08:32:59;102630.03;;;3.06;100.00
23241;BME280;11789;53.482;9.862;2024-01-30T08:35:24;102625.25;;;3.12;100.00
23241;BME280;11789;53.482;9.862;2024-01-30T08:37:49;102626.34;;;3.16;100.00
23241;BME280;11789;53.482;9.862;2024-01-30T08:40:15;102616.37;;;3.21;100.00
23241;BME280;11789;53.482;9.862;2024-01-30T08:42:40;102618.56;;;3.29;100.00
23241;BME280;11789;53.482;9.862;2024-01-30T08:45:06;102600.75;;;3.46;100.00
23241;BME280;11789;53.482;9.862;2024-01-30T08:47:32;102595.50;;;3.59;100.00
23241;BME280;11789;53.482;9.862;2024-01-30T08:49:58;102587.69;;;3.87;100.00
23241;BME280;11789;53.482;9.862;2024-01-30T08:52:24;102579.72;;;4.46;100.00
23241;BME280;11789;53.482;9.862;2024-01-30T08:54:49;102570.66;;;5.21;100.00
23241;BME280;11789;53.482;9.862;2024-01-30T08:57:15;102575.94;;;5.42;100.00
23241;BME280;11789;53.482;9.862;2024-01-30T08:59:40;102577.56;;;5.58;100.00
23241;BME280;11789;53.482;9.862;2024-01-30T09:02:05;102569.50;;;5.50;100.00
23241;BME280;11789;53.482;9.862;2024-01-30T09:04:31;102573.94;;;5.36;100.00
23241;BME280;11789;53.482;9.862;2024-01-30T09:06:56;102567.19;;;5.56;100.00
23241;BME280;11789;53.482;9.862;2024-01-30T09:09:22;102580.59;;;5.86;100.00
23241;BME280;11789;53.482;9.862;2024-01-30T09:11:47;102583.81;;;5.82;100.00
23241;BME280;11789;53.482;9.862;2024-01-30T09:14:13;102584.44;;;5.59;100.00
23241;BME280;11789;53.482;9.862;2024-01-30T09:16:38;102577.84;;;5.46;100.00
23241;BME280;11789;53.482;9.862;2024-01-30T09:19:04;102584.97;;;5.34;100.00
23241;BME280;11789;53.482;9.862;2024-01-30T09:21:29;102591.31;;;5.24;100.00
23241;BME280;11789;53.482;9.862;2024-01-30T09:24:01;102594.81;;;5.08;100.00
23241;BME280;11789;53.482;9.862;2024-01-30T09:26:29;102585.28;;;5.06;100.00
23241;BME280;11789;53.482;9.862;2024-01-30T09:28:54;102600.44;;;5.01;100.00
23241;BME280;11789;53.482;9.862;2024-01-30T09:31:20;102608.28;;;5.04;100.00
23241;BME280;11789;53.482;9.862;2024-01-30T09:33:45;102609.00;;;5.02;100.00
23241;BME280;11789;53.482;9.862;2024-01-30T09:36:13;102616.37;;;4.95;100.00
23241;BME280;11789;53.482;9.862;2024-01-30T09:38:40;102607.13;;;4.98;100.00
23241;BME280;11789;53.482;9.862;2024-01-30T09:41:09;102603.37;;;5.09;100.00
23241;BME280;11789;53.482;9.862;2024-01-30T09:43:38;102605.09;;;5.26;100.00
23241;BME280;11789;53.482;9.862;2024-01-30T09:46:05;102609.81;;;5.53;100.00
23241;BME280;11789;53.482;9.862;2024-01-30T09:48:32;102602.97;;;5.89;100.00
23241;BME280;11789;53.482;9.862;2024-01-30T09:50:59;102597.34;;;6.15;100.00
23241;BME280;11789;53.482;9.862;2024-01-30T09:53:24;102596.50;;;6.34;100.00
23241;BME280;11789;53.482;9.862;2024-01-30T09:55:51;102588.91;;;6.57;100.00
23241;BME280;11789;53.482;9.862;2024-01-30T09:58:16;102579.03;;;6.66;100.00
23241;BME280;11789;53.482;9.862;2024-01-30T10:00:42;102578.06;;;6.64;100.00
23241;BME280;11789;53.482;9.862;2024-01-30T10:03:08;102569.66;;;6.68;100.00
23241;BME280;11789;53.482;9.862;2024-01-30T10:05:35;102569.00;;;6.72;100.00
23241;BME280;11789;53.482;9.862;2024-01-30T10:08:06;102559.97;;;6.82;100.00
23241;BME280;11789;53.482;9.862;2024-01-30T10:10:31;102563.91;;;6.94;100.00
23241;BME280;11789;53.482;9.862;2024-01-30T10:12:56;102568.53;;;7.01;100.00
23241;BME280;11789;53.482;9.862;2024-01-30T10:15:22;102563.50;;;7.05;100.00
23241;BME280;11789;53.482;9.862;2024-01-30T10:17:47;102565.37;;;7.09;100.00
23241;BME280;11789;53.482;9.862;2024-01-30T10:20:13;102573.91;;;7.08;100.00
23241;BME280;11789;53.482;9.862;2024-01-30T10:22:42;102580.75;;;7.07;100.00
23241;BME280;11789;53.482;9.862;2024-01-30T10:25:09;102575.56;;;7.06;100.00
23241;BME280;11789;53.482;9.862;2024-01-30T10:27:35;102572.16;;;7.07;100.00
23241;BME280;11789;53.482;9.862;2024-01-30T10:30:00;102562.06;;;7.11;100.00
23241;BME280;11789;53.482;9.862;2024-01-30T10:32:27;102562.25;;;7.16;100.00
23241;BME280;11789;53.482;9.862;2024-01-30T10:34:52;102573.38;;;7.15;100.00
23241;BME280;11789;53.482;9.862;2024-01-30T10:37:18;102566.63;;;7.18;100.00
23241;BME280;11789;53.482;9.862;2024-01-30T10:39:46;102565.75;;;7.18;100.00
23241;BME280;11789;53.482;9.862;2024-01-30T10:42:13;102559.59;;;7.14;100.00
23241;BME280;11789;53.482;9.862;2024-01-30T10:47:26;102550.31;;;7.18;100.00
23241;BME280;11789;53.482;9.862;2024-01-30T10:49:52;102554.91;;;7.25;100.00
23241;BME280;11789;53.482;9.862;2024-01-30T10:52:20;102548.81;;;7.23;100.00
23241;BME280;11789;53.482;9.862;2024-01-30T10:54:46;102544.53;;;7.23;100.00
23241;BME280;11789;53.482;9.862;2024-01-30T10:57:13;102541.31;;;7.29;100.00
23241;BME280;11789;53.482;9.862;2024-01-30T10:59:41;102540.62;;;7.33;100.00
23241;BME280;11789;53.482;9.862;2024-01-30T11:02:09;102543.34;;;7.36;100.00
23241;BME280;11789;53.482;9.862;2024-01-30T11:04:41;102538.25;;;7.38;100.00
23241;BME280;11789;53.482;9.862;2024-01-30T11:07:23;102533.97;;;7.38;100.00
23241;BME280;11789;53.482;9.862;2024-01-30T11:10:09;102537.50;;;7.40;100.00
23241;BME280;11789;53.482;9.862;2024-01-30T11:12:39;102524.03;;;7.47;100.00
23241;BME280;11789;53.482;9.862;2024-01-30T11:15:10;102533.56;;;7.50;100.00
23241;BME280;11789;53.482;9.862;2024-01-30T11:20:25;102539.72;;;7.53;100.00
23241;BME280;11789;53.482;9.862;2024-01-30T11:22:52;102547.38;;;7.52;100.00
23241;BME280;11789;53.482;9.862;2024-01-30T11:25:20;102550.88;;;7.54;100.00
23241;BME280;11789;53.482;9.862;2024-01-30T11:27:46;102544.75;;;7.50;100.00
23241;BME280;11789;53.482;9.862;2024-01-30T11:30:26;102546.50;;;7.51;100.00
23241;BME280;11789;53.482;9.862;2024-01-30T11:33:06;102555.16;;;7.53;100.00
23241;BME280;11789;53.482;9.862;2024-01-30T11:35:36;102549.13;;;7.53;100.00
23241;BME280;11789;53.482;9.862;2024-01-30T11:38:02;102542.34;;;7.55;100.00
23241;BME280;11789;53.482;9.862;2024-01-30T11:40:29;102544.84;;;7.53;100.00
23241;BME280;11789;53.482;9.862;2024-01-30T11:42:56;102536.22;;;7.51;100.00
23241;BME280;11789;53.482;9.862;2024-01-30T11:45:22;102542.34;;;7.55;100.00
23241;BME280;11789;53.482;9.862;2024-01-30T11:47:47;102531.25;;;7.56;100.00
23241;BME280;11789;53.482;9.862;2024-01-30T11:50:13;102526.91;;;7.55;100.00
23241;BME280;11789;53.482;9.862;2024-01-30T11:52:39;102536.25;;;7.53;100.00
23241;BME280;11789;53.482;9.862;2024-01-30T11:55:05;102529.31;;;7.50;100.00
23241;BME280;11789;53.482;9.862;2024-01-30T11:57:30;102530.12;;;7.49;100.00
23241;BME280;11789;53.482;9.862;2024-01-30T11:59:56;102530.06;;;7.48;100.00
23241;BME280;11789;53.482;9.862;2024-01-30T12:02:21;102530.06;;;7.48;100.00
23241;BME280;11789;53.482;9.862;2024-01-30T12:04:47;102536.09;;;7.48;100.00
23241;BME280;11789;53.482;9.862;2024-01-30T12:07:13;102537.97;;;7.52;100.00
23241;BME280;11789;53.482;9.862;2024-01-30T12:09:41;102520.78;;;7.51;100.00
23241;BME280;11789;53.482;9.862;2024-01-30T12:12:07;102525.03;;;7.51;100.00
23241;BME280;11789;53.482;9.862;2024-01-30T12:14:38;102530.06;;;7.48;100.00
23241;BME280;11789;53.482;9.862;2024-01-30T12:17:04;102524.87;;;7.46;100.00
23241;BME280;11789;53.482;9.862;2024-01-30T12:19:30;102523.16;;;7.47;100.00
23241;BME280;11789;53.482;9.862;2024-01-30T12:21:56;102520.66;;;7.48;100.00
23241;BME280;11789;53.482;9.862;2024-01-30T12:24:22;102499.41;;;7.54;100.00
23241;BME280;11789;53.482;9.862;2024-01-30T12:26:48;102497.72;;;7.54;100.00
23241;BME280;11789;53.482;9.862;2024-01-30T12:29:14;102512.22;;;7.52;100.00
23241;BME280;11789;53.482;9.862;2024-01-30T12:31:42;102520.78;;;7.51;100.00
23241;BME280;11789;53.482;9.862;2024-01-30T12:34:07;102515.69;;;7.53;100.00
23241;BME280;11789;53.482;9.862;2024-01-30T12:36:34;102516.56;;;7.53;100.00
23241;BME280;11789;53.482;9.862;2024-01-30T12:39:00;102511.53;;;7.57;100.00
23241;BME280;11789;53.482;9.862;2024-01-30T12:41:26;102527.03;;;7.58;100.00
23241;BME280;11789;53.482;9.862;2024-01-30T12:43:54;102519.25;;;7.57;100.00
23241;BME280;11789;53.482;9.862;2024-01-30T12:46:20;102518.28;;;7.54;100.00
23241;BME280;11789;53.482;9.862;2024-01-30T12:48:45;102517.44;;;7.54;100.00
23241;BME280;11789;53.482;9.862;2024-01-30T12:51:11;102516.50;;;7.52;100.00
23241;BME280;11789;53.482;9.862;2024-01-30T12:53:36;102504.56;;;7.54;100.00
23241;BME280;11789;53.482;9.862;2024-01-30T12:56:02;102506.25;;;7.53;100.00